sensor_id;sensor_type;location;lat;lon;timestamp;P1;durP1;ratioP1;P2;durP2;ratioP2
34196;SDS011;36594;45.192;5.722;2023-02-13T00:00:32;1.70;;;1.60;;
34196;SDS011;36594;45.192;5.722;2023-02-13T00:03:21;1.62;;;1.52;;
34196;SDS011;36594;45.192;5.722;2023-02-13T00:06:09;1.63;;;1.40;;
34196;SDS011;36594;45.192;5.722;2023-02-13T00:08:57;1.70;;;1.60;;
34196;SDS011;36594;45.192;5.722;2023-02-13T00:11:46;1.70;;;1.60;;
34196;SDS011;36594;45.192;5.722;2023-02-13T00:14:35;1.90;;;1.70;;
34196;SDS011;36594;45.192;5.722;2023-02-13T00:17:24;1.70;;;1.60;;
34196;SDS011;36594;45.192;5.722;2023-02-13T00:20:13;1.47;;;1.47;;
34196;SDS011;36594;45.192;5.722;2023-02-13T00:23:01;1.62;;;1.52;;
34196;SDS011;36594;45.192;5.722;2023-02-13T00:25:50;1.77;;;1.67;;
34196;SDS011;36594;45.192;5.722;2023-02-13T00:28:38;1.70;;;1.60;;
34196;SDS011;36594;45.192;5.722;2023-02-13T00:31:26;1.70;;;1.60;;
34196;SDS011;36594;45.192;5.722;2023-02-13T00:34:15;1.83;;;1.73;;
34196;SDS011;36594;45.192;5.722;2023-02-13T00:37:03;1.70;;;1.60;;
34196;SDS011;36594;45.192;5.722;2023-02-13T00:39:52;1.70;;;1.60;;
34196;SDS011;36594;45.192;5.722;2023-02-13T00:42:41;1.80;;;1.70;;
34196;SDS011;36594;45.192;5.722;2023-02-13T00:45:30;1.75;;;1.65;;
34196;SDS011;36594;45.192;5.722;2023-02-13T00:48:18;1.70;;;1.60;;
34196;SDS011;36594;45.192;5.722;2023-02-13T00:51:07;1.80;;;1.70;;
34196;SDS011;36594;45.192;5.722;2023-02-13T00:53:56;1.67;;;1.57;;
34196;SDS011;36594;45.192;5.722;2023-02-13T00:56:45;1.72;;;1.62;;
34196;SDS011;36594;45.192;5.722;2023-02-13T00:59:33;1.52;;;1.42;;
34196;SDS011;36594;45.192;5.722;2023-02-13T01:02:22;1.65;;;1.55;;
34196;SDS011;36594;45.192;5.722;2023-02-13T01:05:11;1.75;;;1.57;;
34196;SDS011;36594;45.192;5.722;2023-02-13T01:08:00;1.62;;;1.52;;
34196;SDS011;36594;45.192;5.722;2023-02-13T01:10:48;1.70;;;1.60;;
34196;SDS011;36594;45.192;5.722;2023-02-13T01:13:37;1.60;;;1.50;;
34196;SDS011;36594;45.192;5.722;2023-02-13T01:16:26;2.02;;;1.82;;
34196;SDS011;36594;45.192;5.722;2023-02-13T01:19:14;1.90;;;1.80;;
34196;SDS011;36594;45.192;5.722;2023-02-13T01:22:03;2.27;;;1.90;;
34196;SDS011;36594;45.192;5.722;2023-02-13T01:24:51;1.67;;;1.57;;
34196;SDS011;36594;45.192;5.722;2023-02-13T01:27:39;1.60;;;1.50;;
34196;SDS011;36594;45.192;5.722;2023-02-13T01:30:28;1.70;;;1.60;;
34196;SDS011;36594;45.192;5.722;2023-02-13T01:33:16;1.77;;;1.65;;
34196;SDS011;36594;45.192;5.722;2023-02-13T01:36:08;1.50;;;1.50;;
34196;SDS011;36594;45.192;5.722;2023-02-13T01:38:59;1.80;;;1.70;;
34196;SDS011;36594;45.192;5.722;2023-02-13T01:41:49;1.80;;;1.70;;
34196;SDS011;36594;45.192;5.722;2023-02-13T01:44:45;1.67;;;1.57;;
34196;SDS011;36594;45.192;5.722;2023-02-13T01:47:53;1.90;;;1.80;;
34196;SDS011;36594;45.192;5.722;2023-02-13T01:53:41;1.70;;;1.60;;
34196;SDS011;36594;45.192;5.722;2023-02-13T01:56:43;1.92;;;1.80;;
34196;SDS011;36594;45.192;5.722;2023-02-13T01:59:30;1.97;;;1.87;;
34196;SDS011;36594;45.192;5.722;2023-02-13T02:02:20;2.42;;;1.90;;
34196;SDS011;36594;45.192;5.722;2023-02-13T02:05:10;2.30;;;1.80;;
34196;SDS011;36594;45.192;5.722;2023-02-13T02:08:02;1.60;;;1.50;;
34196;SDS011;36594;45.192;5.722;2023-02-13T02:10:55;1.65;;;1.55;;
34196;SDS011;36594;45.192;5.722;2023-02-13T02:13:47;1.87;;;1.77;;
34196;SDS011;36594;45.192;5.722;2023-02-13T02:16:37;1.90;;;1.80;;
34196;SDS011;36594;45.192;5.722;2023-02-13T02:31:55;1.90;;;1.80;;
34196;SDS011;36594;45.192;5.722;2023-02-13T02:35:01;1.77;;;1.67;;
34196;SDS011;36594;45.192;5.722;2023-02-13T02:38:09;1.77;;;1.67;;
34196;SDS011;36594;45.192;5.722;2023-02-13T02:41:15;2.00;;;1.90;;
34196;SDS011;36594;45.192;5.722;2023-02-13T02:44:32;1.85;;;1.75;;
34196;SDS011;36594;45.192;5.722;2023-02-13T02:47:49;1.77;;;1.67;;
34196;SDS011;36594;45.192;5.722;2023-02-13T02:51:02;1.77;;;1.67;;
34196;SDS011;36594;45.192;5.722;2023-02-13T02:57:26;1.90;;;1.80;;
34196;SDS011;36594;45.192;5.722;2023-02-13T03:00:19;1.77;;;1.67;;
34196;SDS011;36594;45.192;5.722;2023-02-13T03:03:28;1.92;;;1.80;;
34196;SDS011;36594;45.192;5.722;2023-02-13T03:06:48;2.55;;;1.80;;
34196;SDS011;36594;45.192;5.722;2023-02-13T03:09:42;1.82;;;1.72;;
34196;SDS011;36594;45.192;5.722;2023-02-13T03:13:04;1.72;;;1.62;;
34196;SDS011;36594;45.192;5.722;2023-02-13T03:16:10;1.80;;;1.70;;
34196;SDS011;36594;45.192;5.722;2023-02-13T03:23:13;2.00;;;1.90;;
34196;SDS011;36594;45.192;5.722;2023-02-13T03:34:03;2.12;;;2.02;;
34196;SDS011;36594;45.192;5.722;2023-02-13T03:36:58;1.90;;;1.80;;
34196;SDS011;36594;45.192;5.722;2023-02-13T03:40:20;1.87;;;1.77;;
34196;SDS011;36594;45.192;5.722;2023-02-13T03:43:26;1.92;;;1.82;;
34196;SDS011;36594;45.192;5.722;2023-02-13T03:46:18;2.08;;;1.98;;
34196;SDS011;36594;45.192;5.722;2023-02-13T03:49:09;1.70;;;1.60;;
34196;SDS011;36594;45.192;5.722;2023-02-13T03:55:12;1.77;;;1.67;;
34196;SDS011;36594;45.192;5.722;2023-02-13T03:58:23;1.80;;;1.70;;
34196;SDS011;36594;45.192;5.722;2023-02-13T04:01:33;2.10;;;2.00;;
34196;SDS011;36594;45.192;5.722;2023-02-13T04:04:34;2.25;;;2.08;;
34196;SDS011;36594;45.192;5.722;2023-02-13T04:07:23;1.95;;;1.85;;
34196;SDS011;36594;45.192;5.722;2023-02-13T04:10:16;1.85;;;1.75;;
34196;SDS011;36594;45.192;5.722;2023-02-13T04:13:12;1.77;;;1.67;;
34196;SDS011;36594;45.192;5.722;2023-02-13T04:16:08;1.82;;;1.72;;
34196;SDS011;36594;45.192;5.722;2023-02-13T04:18:57;2.02;;;1.92;;
34196;SDS011;36594;45.192;5.722;2023-02-13T04:21:49;2.02;;;1.92;;
34196;SDS011;36594;45.192;5.722;2023-02-13T04:24:39;1.90;;;1.80;;
34196;SDS011;36594;45.192;5.722;2023-02-13T04:27:28;1.90;;;1.80;;
34196;SDS011;36594;45.192;5.722;2023-02-13T04:30:17;1.90;;;1.80;;
34196;SDS011;36594;45.192;5.722;2023-02-13T04:33:05;2.20;;;2.00;;
34196;SDS011;36594;45.192;5.722;2023-02-13T04:35:53;2.27;;;2.08;;
34196;SDS011;36594;45.192;5.722;2023-02-13T04:38:42;1.80;;;1.70;;
34196;SDS011;36594;45.192;5.722;2023-02-13T04:41:31;1.90;;;1.80;;
34196;SDS011;36594;45.192;5.722;2023-02-13T04:44:20;1.90;;;1.70;;
34196;SDS011;36594;45.192;5.722;2023-02-13T04:47:08;1.90;;;1.80;;
34196;SDS011;36594;45.192;5.722;2023-02-13T04:49:56;1.87;;;1.70;;
34196;SDS011;36594;45.192;5.722;2023-02-13T04:52:45;1.90;;;1.80;;
34196;SDS011;36594;45.192;5.722;2023-02-13T04:55:32;2.05;;;1.92;;
34196;SDS011;36594;45.192;5.722;2023-02-13T04:58:20;1.80;;;1.70;;
34196;SDS011;36594;45.192;5.722;2023-02-13T05:01:15;2.22;;;2.12;;
34196;SDS011;36594;45.192;5.722;2023-02-13T05:04:05;1.90;;;1.80;;
34196;SDS011;36594;45.192;5.722;2023-02-13T05:06:53;1.87;;;1.77;;
34196;SDS011;36594;45.192;5.722;2023-02-13T05:09:42;2.05;;;1.85;;
34196;SDS011;36594;45.192;5.722;2023-02-13T05:12:30;2.02;;;1.77;;
34196;SDS011;36594;45.192;5.722;2023-02-13T05:15:19;2.00;;;1.67;;
34196;SDS011;36594;45.192;5.722;2023-02-13T05:18:08;1.90;;;1.80;;
34196;SDS011;36594;45.192;5.722;2023-02-13T05:20:57;1.65;;;1.55;;
34196;SDS011;36594;45.192;5.722;2023-02-13T05:24:03;2.13;;;1.93;;
34196;SDS011;36594;45.192;5.722;2023-02-13T05:26:52;1.92;;;1.82;;
34196;SDS011;36594;45.192;5.722;2023-02-13T05:29:41;2.50;;;2.08;;
34196;SDS011;36594;45.192;5.722;2023-02-13T05:32:29;1.70;;;1.60;;
34196;SDS011;36594;45.192;5.722;2023-02-13T05:35:17;2.00;;;1.90;;
34196;SDS011;36594;45.192;5.722;2023-02-13T05:38:06;2.17;;;1.98;;
34196;SDS011;36594;45.192;5.722;2023-02-13T05:40:57;2.05;;;1.95;;
34196;SDS011;36594;45.192;5.722;2023-02-13T05:43:46;2.02;;;1.90;;
34196;SDS011;36594;45.192;5.722;2023-02-13T05:46:35;2.10;;;1.90;;
34196;SDS011;36594;45.192;5.722;2023-02-13T05:49:25;1.90;;;1.80;;
34196;SDS011;36594;45.192;5.722;2023-02-13T05:52:13;1.82;;;1.72;;
34196;SDS011;36594;45.192;5.722;2023-02-13T05:55:02;1.82;;;1.72;;
34196;SDS011;36594;45.192;5.722;2023-02-13T05:57:54;2.33;;;2.00;;
34196;SDS011;36594;45.192;5.722;2023-02-13T06:00:44;1.80;;;1.70;;
34196;SDS011;36594;45.192;5.722;2023-02-13T06:03:33;1.98;;;1.87;;
34196;SDS011;36594;45.192;5.722;2023-02-13T06:06:21;1.90;;;1.80;;
34196;SDS011;36594;45.192;5.722;2023-02-13T06:09:10;2.00;;;1.90;;
34196;SDS011;36594;45.192;5.722;2023-02-13T06:11:58;1.90;;;1.80;;
34196;SDS011;36594;45.192;5.722;2023-02-13T06:14:47;1.77;;;1.67;;
34196;SDS011;36594;45.192;5.722;2023-02-13T06:17:35;1.97;;;1.63;;
34196;SDS011;36594;45.192;5.722;2023-02-13T06:20:24;1.90;;;1.80;;
34196;SDS011;36594;45.192;5.722;2023-02-13T06:23:12;1.90;;;1.80;;
34196;SDS011;36594;45.192;5.722;2023-02-13T06:26:02;2.00;;;1.90;;
34196;SDS011;36594;45.192;5.722;2023-02-13T06:28:52;1.92;;;1.82;;
34196;SDS011;36594;45.192;5.722;2023-02-13T06:31:40;2.20;;;2.00;;
34196;SDS011;36594;45.192;5.722;2023-02-13T06:34:29;1.90;;;1.80;;
34196;SDS011;36594;45.192;5.722;2023-02-13T06:37:17;1.87;;;1.77;;
34196;SDS011;36594;45.192;5.722;2023-02-13T06:40:05;2.00;;;1.90;;
34196;SDS011;36594;45.192;5.722;2023-02-13T06:42:56;2.35;;;2.20;;
34196;SDS011;36594;45.192;5.722;2023-02-13T06:45:44;2.20;;;2.10;;
34196;SDS011;36594;45.192;5.722;2023-02-13T06:48:33;2.33;;;2.22;;
34196;SDS011;36594;45.192;5.722;2023-02-13T06:51:22;2.35;;;2.25;;
34196;SDS011;36594;45.192;5.722;2023-02-13T06:54:10;2.40;;;2.20;;
34196;SDS011;36594;45.192;5.722;2023-02-13T06:56:58;2.47;;;2.27;;
34196;SDS011;36594;45.192;5.722;2023-02-13T06:59:46;2.58;;;2.37;;
34196;SDS011;36594;45.192;5.722;2023-02-13T07:02:36;3.00;;;2.80;;
34196;SDS011;36594;45.192;5.722;2023-02-13T07:05:24;3.50;;;3.20;;
34196;SDS011;36594;45.192;5.722;2023-02-13T07:08:12;3.50;;;3.20;;
34196;SDS011;36594;45.192;5.722;2023-02-13T07:11:01;3.33;;;3.02;;
34196;SDS011;36594;45.192;5.722;2023-02-13T07:13:50;3.62;;;3.33;;
34196;SDS011;36594;45.192;5.722;2023-02-13T07:16:38;3.73;;;3.03;;
34196;SDS011;36594;45.192;5.722;2023-02-13T07:19:27;3.30;;;3.10;;
34196;SDS011;36594;45.192;5.722;2023-02-13T07:22:15;3.37;;;3.08;;
34196;SDS011;36594;45.192;5.722;2023-02-13T07:25:04;3.30;;;3.00;;
34196;SDS011;36594;45.192;5.722;2023-02-13T07:27:53;3.37;;;3.17;;
34196;SDS011;36594;45.192;5.722;2023-02-13T07:30:41;3.27;;;3.07;;
34196;SDS011;36594;45.192;5.722;2023-02-13T07:33:30;3.62;;;3.30;;
34196;SDS011;36594;45.192;5.722;2023-02-13T07:36:22;4.00;;;2.77;;
34196;SDS011;36594;45.192;5.722;2023-02-13T07:39:10;3.10;;;2.83;;
34196;SDS011;36594;45.192;5.722;2023-02-13T07:41:58;3.98;;;2.92;;
34196;SDS011;36594;45.192;5.722;2023-02-13T07:44:46;3.10;;;2.90;;
34196;SDS011;36594;45.192;5.722;2023-02-13T07:47:35;3.98;;;2.98;;
34196;SDS011;36594;45.192;5.722;2023-02-13T07:50:24;3.35;;;2.75;;
34196;SDS011;36594;45.192;5.722;2023-02-13T07:53:13;3.10;;;2.72;;
34196;SDS011;36594;45.192;5.722;2023-02-13T07:56:10;3.17;;;2.62;;
34196;SDS011;36594;45.192;5.722;2023-02-13T07:58:55;2.98;;;2.77;;
34196;SDS011;36594;45.192;5.722;2023-02-13T08:01:43;3.10;;;2.90;;
34196;SDS011;36594;45.192;5.722;2023-02-13T08:04:32;2.92;;;2.72;;
34196;SDS011;36594;45.192;5.722;2023-02-13T08:07:20;3.95;;;2.62;;
34196;SDS011;36594;45.192;5.722;2023-02-13T08:10:10;3.83;;;2.77;;
34196;SDS011;36594;45.192;5.722;2023-02-13T08:13:17;2.83;;;2.62;;
34196;SDS011;36594;45.192;5.722;2023-02-13T08:16:06;3.45;;;2.85;;
34196;SDS011;36594;45.192;5.722;2023-02-13T08:18:54;2.70;;;2.50;;
34196;SDS011;36594;45.192;5.722;2023-02-13T08:21:43;2.70;;;2.50;;
34196;SDS011;36594;45.192;5.722;2023-02-13T08:24:31;2.90;;;2.70;;
34196;SDS011;36594;45.192;5.722;2023-02-13T08:27:20;2.77;;;2.57;;
34196;SDS011;36594;45.192;5.722;2023-02-13T08:30:10;2.75;;;2.55;;
34196;SDS011;36594;45.192;5.722;2023-02-13T08:33:00;2.50;;;2.30;;
34196;SDS011;36594;45.192;5.722;2023-02-13T08:35:48;2.90;;;2.65;;
34196;SDS011;36594;45.192;5.722;2023-02-13T08:38:37;2.95;;;2.70;;
34196;SDS011;36594;45.192;5.722;2023-02-13T08:41:26;2.80;;;2.60;;
34196;SDS011;36594;45.192;5.722;2023-02-13T08:44:14;2.65;;;2.45;;
34196;SDS011;36594;45.192;5.722;2023-02-13T08:47:03;2.60;;;2.37;;
34196;SDS011;36594;45.192;5.722;2023-02-13T08:49:52;2.98;;;2.33;;
34196;SDS011;36594;45.192;5.722;2023-02-13T08:52:40;2.75;;;2.52;;
34196;SDS011;36594;45.192;5.722;2023-02-13T08:55:28;2.57;;;2.37;;
34196;SDS011;36594;45.192;5.722;2023-02-13T08:58:17;2.72;;;2.52;;
34196;SDS011;36594;45.192;5.722;2023-02-13T09:01:06;2.60;;;2.40;;
34196;SDS011;36594;45.192;5.722;2023-02-13T09:03:55;2.50;;;2.30;;
34196;SDS011;36594;45.192;5.722;2023-02-13T09:06:43;2.58;;;2.40;;
34196;SDS011;36594;45.192;5.722;2023-02-13T09:09:32;2.50;;;2.30;;
34196;SDS011;36594;45.192;5.722;2023-02-13T09:12:20;2.80;;;2.60;;
34196;SDS011;36594;45.192;5.722;2023-02-13T09:15:09;2.47;;;2.30;;
34196;SDS011;36594;45.192;5.722;2023-02-13T09:17:57;2.30;;;2.20;;
34196;SDS011;36594;45.192;5.722;2023-02-13T09:20:45;2.27;;;2.17;;
34196;SDS011;36594;45.192;5.722;2023-02-13T09:23:35;2.70;;;2.50;;
34196;SDS011;36594;45.192;5.722;2023-02-13T09:26:25;2.50;;;2.30;;
34196;SDS011;36594;45.192;5.722;2023-02-13T09:29:13;2.50;;;2.30;;
34196;SDS011;36594;45.192;5.722;2023-02-13T09:32:03;2.60;;;2.40;;
34196;SDS011;36594;45.192;5.722;2023-02-13T09:34:52;2.60;;;2.37;;
34196;SDS011;36594;45.192;5.722;2023-02-13T09:37:41;3.17;;;2.27;;
34196;SDS011;36594;45.192;5.722;2023-02-13T09:40:35;2.67;;;2.40;;
34196;SDS011;36594;45.192;5.722;2023-02-13T09:43:33;3.03;;;2.20;;
34196;SDS011;36594;45.192;5.722;2023-02-13T09:46:24;2.58;;;2.37;;
34196;SDS011;36594;45.192;5.722;2023-02-13T09:49:15;2.40;;;2.20;;
34196;SDS011;36594;45.192;5.722;2023-02-13T09:52:06;2.50;;;2.30;;
34196;SDS011;36594;45.192;5.722;2023-02-13T09:54:55;2.45;;;2.25;;
34196;SDS011;36594;45.192;5.722;2023-02-13T09:57:56;3.05;;;2.55;;
34196;SDS011;36594;45.192;5.722;2023-02-13T10:00:54;2.47;;;2.30;;
34196;SDS011;36594;45.192;5.722;2023-02-13T10:03:47;2.60;;;2.40;;
34196;SDS011;36594;45.192;5.722;2023-02-13T10:06:42;2.30;;;2.10;;
34196;SDS011;36594;45.192;5.722;2023-02-13T10:12:49;2.27;;;2.08;;
34196;SDS011;36594;45.192;5.722;2023-02-13T10:15:42;2.40;;;2.20;;
34196;SDS011;36594;45.192;5.722;2023-02-13T10:18:54;2.52;;;2.30;;
34196;SDS011;36594;45.192;5.722;2023-02-13T10:21:54;2.47;;;2.30;;
34196;SDS011;36594;45.192;5.722;2023-02-13T10:24:54;2.52;;;2.33;;
34196;SDS011;36594;45.192;5.722;2023-02-13T10:28:03;2.40;;;2.20;;
34196;SDS011;36594;45.192;5.722;2023-02-13T10:31:01;2.47;;;2.27;;
34196;SDS011;36594;45.192;5.722;2023-02-13T10:33:51;2.17;;;2.08;;
34196;SDS011;36594;45.192;5.722;2023-02-13T10:36:43;2.08;;;1.98;;
34196;SDS011;36594;45.192;5.722;2023-02-13T10:39:32;2.20;;;2.10;;
34196;SDS011;36594;45.192;5.722;2023-02-13T10:42:39;2.15;;;1.98;;
34196;SDS011;36594;45.192;5.722;2023-02-13T10:45:32;2.33;;;2.20;;
34196;SDS011;36594;45.192;5.722;2023-02-13T10:48:47;2.33;;;2.13;;
34196;SDS011;36594;45.192;5.722;2023-02-13T10:57:47;2.17;;;2.00;;
34196;SDS011;36594;45.192;5.722;2023-02-13T11:03:44;2.30;;;2.10;;
34196;SDS011;36594;45.192;5.722;2023-02-13T11:06:40;2.25;;;1.80;;
34196;SDS011;36594;45.192;5.722;2023-02-13T11:09:33;2.20;;;2.07;;
34196;SDS011;36594;45.192;5.722;2023-02-13T11:15:23;2.20;;;2.00;;
34196;SDS011;36594;45.192;5.722;2023-02-13T11:18:21;3.22;;;2.08;;
34196;SDS011;36594;45.192;5.722;2023-02-13T11:21:12;2.50;;;2.12;;
34196;SDS011;36594;45.192;5.722;2023-02-13T11:23:58;2.00;;;1.90;;
34196;SDS011;36594;45.192;5.722;2023-02-13T11:26:56;2.30;;;2.10;;
34196;SDS011;36594;45.192;5.722;2023-02-13T11:29:59;2.20;;;2.02;;
34196;SDS011;36594;45.192;5.722;2023-02-13T11:32:57;2.15;;;1.95;;
34196;SDS011;36594;45.192;5.722;2023-02-13T11:35:48;2.15;;;2.05;;
34196;SDS011;36594;45.192;5.722;2023-02-13T11:38:36;2.40;;;2.20;;
34196;SDS011;36594;45.192;5.722;2023-02-13T11:41:25;1.98;;;1.87;;
34196;SDS011;36594;45.192;5.722;2023-02-13T11:44:21;2.10;;;1.90;;
34196;SDS011;36594;45.192;5.722;2023-02-13T11:47:10;1.90;;;1.80;;
34196;SDS011;36594;45.192;5.722;2023-02-13T11:50:00;2.10;;;2.00;;
34196;SDS011;36594;45.192;5.722;2023-02-13T11:53:26;2.00;;;1.90;;
34196;SDS011;36594;45.192;5.722;2023-02-13T11:56:03;2.50;;;2.10;;
34196;SDS011;36594;45.192;5.722;2023-02-13T11:59:01;1.93;;;1.73;;
34196;SDS011;36594;45.192;5.722;2023-02-13T12:05:13;2.00;;;1.90;;
34196;SDS011;36594;45.192;5.722;2023-02-13T12:08:07;2.00;;;1.90;;
34196;SDS011;36594;45.192;5.722;2023-02-13T12:10:56;2.00;;;1.90;;
34196;SDS011;36594;45.192;5.722;2023-02-13T12:13:46;2.10;;;2.00;;
34196;SDS011;36594;45.192;5.722;2023-02-13T12:28:21;1.80;;;1.62;;
34196;SDS011;36594;45.192;5.722;2023-02-13T12:31:23;2.08;;;1.98;;
34196;SDS011;36594;45.192;5.722;2023-02-13T12:34:27;1.95;;;1.85;;
34196;SDS011;36594;45.192;5.722;2023-02-13T12:37:18;3.58;;;2.00;;
34196;SDS011;36594;45.192;5.722;2023-02-13T12:40:36;1.98;;;1.87;;
34196;SDS011;36594;45.192;5.722;2023-02-13T12:58:50;1.98;;;1.87;;
34196;SDS011;36594;45.192;5.722;2023-02-13T13:05:19;1.82;;;1.72;;
34196;SDS011;36594;45.192;5.722;2023-02-13T13:08:13;1.90;;;1.80;;
34196;SDS011;36594;45.192;5.722;2023-02-13T13:11:16;1.77;;;1.67;;
34196;SDS011;36594;45.192;5.722;2023-02-13T13:29:11;1.90;;;1.80;;
34196;SDS011;36594;45.192;5.722;2023-02-13T13:32:02;1.80;;;1.70;;
34196;SDS011;36594;45.192;5.722;2023-02-13T13:34:55;1.70;;;1.60;;
34196;SDS011;36594;45.192;5.722;2023-02-13T13:37:50;2.30;;;1.75;;
34196;SDS011;36594;45.192;5.722;2023-02-13T13:43:57;1.70;;;1.55;;
34196;SDS011;36594;45.192;5.722;2023-02-13T13:50:23;1.60;;;1.50;;
34196;SDS011;36594;45.192;5.722;2023-02-13T13:53:17;2.37;;;1.70;;
34196;SDS011;36594;45.192;5.722;2023-02-13T13:56:08;1.70;;;1.60;;
34196;SDS011;36594;45.192;5.722;2023-02-13T13:58:57;1.60;;;1.50;;
34196;SDS011;36594;45.192;5.722;2023-02-13T14:01:45;1.90;;;1.60;;
34196;SDS011;36594;45.192;5.722;2023-02-13T14:07:36;1.72;;;1.62;;
34196;SDS011;36594;45.192;5.722;2023-02-13T14:13:34;1.67;;;1.57;;
34196;SDS011;36594;45.192;5.722;2023-02-13T14:16:36;1.70;;;1.60;;
34196;SDS011;36594;45.192;5.722;2023-02-13T14:19:33;1.80;;;1.70;;
34196;SDS011;36594;45.192;5.722;2023-02-13T14:22:25;1.47;;;1.40;;
34196;SDS011;36594;45.192;5.722;2023-02-13T14:25:22;1.70;;;1.60;;
34196;SDS011;36594;45.192;5.722;2023-02-13T14:28:24;1.80;;;1.70;;
34196;SDS011;36594;45.192;5.722;2023-02-13T14:31:13;1.97;;;1.60;;
34196;SDS011;36594;45.192;5.722;2023-02-13T14:40:11;1.80;;;1.70;;
34196;SDS011;36594;45.192;5.722;2023-02-13T14:43:13;1.70;;;1.57;;
34196;SDS011;36594;45.192;5.722;2023-02-13T14:46:07;1.73;;;1.63;;
34196;SDS011;36594;45.192;5.722;2023-02-13T14:49:24;1.82;;;1.72;;
34196;SDS011;36594;45.192;5.722;2023-02-13T14:52:22;2.17;;;1.60;;
34196;SDS011;36594;45.192;5.722;2023-02-13T14:56:01;1.52;;;1.42;;
34196;SDS011;36594;45.192;5.722;2023-02-13T15:01:03;1.80;;;1.60;;
34196;SDS011;36594;45.192;5.722;2023-02-13T15:03:57;1.80;;;1.60;;
34196;SDS011;36594;45.192;5.722;2023-02-13T15:06:50;1.70;;;1.55;;
34196;SDS011;36594;45.192;5.722;2023-02-13T15:09:49;1.55;;;1.45;;
34196;SDS011;36594;45.192;5.722;2023-02-13T15:12:39;1.80;;;1.70;;
34196;SDS011;36594;45.192;5.722;2023-02-13T15:15:34;1.70;;;1.60;;
34196;SDS011;36594;45.192;5.722;2023-02-13T15:21:28;1.90;;;1.52;;
34196;SDS011;36594;45.192;5.722;2023-02-13T15:24:18;1.57;;;1.47;;
34196;SDS011;36594;45.192;5.722;2023-02-13T15:27:15;1.77;;;1.67;;
34196;SDS011;36594;45.192;5.722;2023-02-13T15:30:00;1.60;;;1.50;;
34196;SDS011;36594;45.192;5.722;2023-02-13T15:32:54;1.70;;;1.60;;
34196;SDS011;36594;45.192;5.722;2023-02-13T15:35:45;1.77;;;1.60;;
34196;SDS011;36594;45.192;5.722;2023-02-13T15:38:35;1.90;;;1.70;;
34196;SDS011;36594;45.192;5.722;2023-02-13T15:41:26;1.87;;;1.47;;
34196;SDS011;36594;45.192;5.722;2023-02-13T15:44:16;1.35;;;1.35;;
34196;SDS011;36594;45.192;5.722;2023-02-13T15:47:08;1.60;;;1.50;;
34196;SDS011;36594;45.192;5.722;2023-02-13T15:50:04;1.50;;;1.40;;
34196;SDS011;36594;45.192;5.722;2023-02-13T15:52:55;1.60;;;1.50;;
34196;SDS011;36594;45.192;5.722;2023-02-13T15:56:04;1.42;;;1.42;;
34196;SDS011;36594;45.192;5.722;2023-02-13T15:58:50;1.27;;;1.27;;
34196;SDS011;36594;45.192;5.722;2023-02-13T16:01:40;1.30;;;1.30;;
34196;SDS011;36594;45.192;5.722;2023-02-13T16:04:30;1.90;;;1.50;;
34196;SDS011;36594;45.192;5.722;2023-02-13T16:07:20;1.40;;;1.30;;
34196;SDS011;36594;45.192;5.722;2023-02-13T16:10:13;1.90;;;1.80;;
34196;SDS011;36594;45.192;5.722;2023-02-13T16:13:06;1.60;;;1.50;;
34196;SDS011;36594;45.192;5.722;2023-02-13T16:16:06;1.40;;;1.40;;
34196;SDS011;36594;45.192;5.722;2023-02-13T16:18:48;1.60;;;1.50;;
34196;SDS011;36594;45.192;5.722;2023-02-13T16:21:37;1.40;;;1.30;;
34196;SDS011;36594;45.192;5.722;2023-02-13T16:24:26;1.42;;;1.32;;
34196;SDS011;36594;45.192;5.722;2023-02-13T16:27:15;1.52;;;1.42;;
34196;SDS011;36594;45.192;5.722;2023-02-13T16:30:06;1.30;;;1.20;;
34196;SDS011;36594;45.192;5.722;2023-02-13T16:39:09;1.45;;;1.40;;
34196;SDS011;36594;45.192;5.722;2023-02-13T16:41:58;1.40;;;1.40;;
34196;SDS011;36594;45.192;5.722;2023-02-13T16:44:47;1.52;;;1.45;;
34196;SDS011;36594;45.192;5.722;2023-02-13T16:47:35;1.37;;;1.32;;
34196;SDS011;36594;45.192;5.722;2023-02-13T16:50:24;1.35;;;1.25;;
34196;SDS011;36594;45.192;5.722;2023-02-13T16:53:13;1.55;;;1.45;;
34196;SDS011;36594;45.192;5.722;2023-02-13T16:56:09;1.20;;;1.20;;
34196;SDS011;36594;45.192;5.722;2023-02-13T16:59:09;1.32;;;1.22;;
34196;SDS011;36594;45.192;5.722;2023-02-13T17:02:02;1.30;;;1.30;;
34196;SDS011;36594;45.192;5.722;2023-02-13T17:07:59;1.40;;;1.30;;
34196;SDS011;36594;45.192;5.722;2023-02-13T17:11:09;1.32;;;1.32;;
34196;SDS011;36594;45.192;5.722;2023-02-13T17:13:49;1.50;;;1.40;;
34196;SDS011;36594;45.192;5.722;2023-02-13T17:16:37;1.40;;;1.30;;
34196;SDS011;36594;45.192;5.722;2023-02-13T17:19:26;1.30;;;1.20;;
34196;SDS011;36594;45.192;5.722;2023-02-13T17:25:20;3.58;;;1.40;;
34196;SDS011;36594;45.192;5.722;2023-02-13T17:28:18;1.37;;;1.37;;
34196;SDS011;36594;45.192;5.722;2023-02-13T17:31:04;1.52;;;1.42;;
34196;SDS011;36594;45.192;5.722;2023-02-13T17:33:55;1.40;;;1.30;;
34196;SDS011;36594;45.192;5.722;2023-02-13T17:36:44;1.67;;;1.57;;
34196;SDS011;36594;45.192;5.722;2023-02-13T17:39:32;1.70;;;1.60;;
34196;SDS011;36594;45.192;5.722;2023-02-13T17:42:21;1.90;;;1.50;;
34196;SDS011;36594;45.192;5.722;2023-02-13T17:45:15;1.85;;;1.40;;
34196;SDS011;36594;45.192;5.722;2023-02-13T17:48:05;1.70;;;1.23;;
34196;SDS011;36594;45.192;5.722;2023-02-13T17:50:53;1.22;;;1.20;;
34196;SDS011;36594;45.192;5.722;2023-02-13T17:53:42;1.50;;;1.40;;
34196;SDS011;36594;45.192;5.722;2023-02-13T17:56:32;1.40;;;1.30;;
34196;SDS011;36594;45.192;5.722;2023-02-13T17:59:20;1.67;;;1.57;;
34196;SDS011;36594;45.192;5.722;2023-02-13T18:02:13;1.37;;;1.30;;
34196;SDS011;36594;45.192;5.722;2023-02-13T18:05:03;1.65;;;1.55;;
34196;SDS011;36594;45.192;5.722;2023-02-13T18:07:52;1.30;;;1.30;;
34196;SDS011;36594;45.192;5.722;2023-02-13T18:10:41;1.87;;;1.37;;
34196;SDS011;36594;45.192;5.722;2023-02-13T18:13:29;1.40;;;1.30;;
34196;SDS011;36594;45.192;5.722;2023-02-13T18:16:18;1.42;;;1.37;;
34196;SDS011;36594;45.192;5.722;2023-02-13T18:19:07;1.40;;;1.30;;
34196;SDS011;36594;45.192;5.722;2023-02-13T18:21:56;1.57;;;1.47;;
34196;SDS011;36594;45.192;5.722;2023-02-13T18:24:45;1.43;;;1.33;;
34196;SDS011;36594;45.192;5.722;2023-02-13T18:27:34;1.50;;;1.40;;
34196;SDS011;36594;45.192;5.722;2023-02-13T18:30:22;3.33;;;1.67;;
34196;SDS011;36594;45.192;5.722;2023-02-13T18:33:11;1.20;;;1.20;;
34196;SDS011;36594;45.192;5.722;2023-02-13T18:36:00;1.55;;;1.30;;
34196;SDS011;36594;45.192;5.722;2023-02-13T18:38:50;1.35;;;1.30;;
34196;SDS011;36594;45.192;5.722;2023-02-13T18:41:38;1.52;;;1.27;;
34196;SDS011;36594;45.192;5.722;2023-02-13T18:44:27;1.17;;;1.17;;
34196;SDS011;36594;45.192;5.722;2023-02-13T18:47:16;2.07;;;1.33;;
34196;SDS011;36594;45.192;5.722;2023-02-13T18:50:04;1.40;;;1.30;;
34196;SDS011;36594;45.192;5.722;2023-02-13T18:52:54;1.37;;;1.27;;
34196;SDS011;36594;45.192;5.722;2023-02-13T18:55:42;1.87;;;1.30;;
34196;SDS011;36594;45.192;5.722;2023-02-13T18:58:31;1.50;;;1.32;;
34196;SDS011;36594;45.192;5.722;2023-02-13T19:01:20;1.20;;;1.15;;
34196;SDS011;36594;45.192;5.722;2023-02-13T19:04:10;1.17;;;1.17;;
34196;SDS011;36594;45.192;5.722;2023-02-13T19:06:58;1.50;;;1.40;;
34196;SDS011;36594;45.192;5.722;2023-02-13T19:09:46;1.15;;;1.15;;
34196;SDS011;36594;45.192;5.722;2023-02-13T19:12:35;1.50;;;1.40;;
34196;SDS011;36594;45.192;5.722;2023-02-13T19:15:24;1.20;;;1.20;;
34196;SDS011;36594;45.192;5.722;2023-02-13T19:18:12;1.27;;;1.27;;
34196;SDS011;36594;45.192;5.722;2023-02-13T19:21:00;1.37;;;1.27;;
34196;SDS011;36594;45.192;5.722;2023-02-13T19:23:50;1.50;;;1.50;;
34196;SDS011;36594;45.192;5.722;2023-02-13T19:26:39;1.20;;;1.20;;
34196;SDS011;36594;45.192;5.722;2023-02-13T19:29:28;1.20;;;1.20;;
34196;SDS011;36594;45.192;5.722;2023-02-13T19:32:16;1.30;;;1.30;;